Tiempo atmosférico en la estación meteorológica de Castellón de la Plana, Almazora, Castelló/Castellón (35 m.)



Fecha
DESCASC
Temp. máxima en grados centígrados (hora)
DESCASC
Temp. mínima en grados centígrados (hora)
DESCASC
Temp. media en grados centígrados
DESCASC
Racha de viento máxima en m/sg (hora)
DESCASC
Velocidad máxima media en intervalos de 10 minutos(hora)
DESCASC
Precipitaciones diarias en mm
DESCASC
Precipitaciones de 00:00 a 06:00 en mm
DESCASC
Precipitaciones de 06:00 a 12:00 en mm
DESCASC
Precipitaciones de 12:00 a 18:00 en mm
DESCASC
Precipitaciones de 18:00 a 24:00 en mm
DESCASC

Gráficas

Temp. máximas Temp. mínimas Temp. medias Precipitaciones Rachas de viento máximas Velocidades máximas media en intervalos de 10 minutos

Datos horarios

Fecha y hora oficial Temperatura (ºC) Velocidad del viento (km/h) Dirección del viento Racha (km/h) Dirección de racha Precipitación (mm) Presión (hPa) Tendencia (hPa) Humedad (%)
2019-12-05 23:00:00 11.9 5 Noroeste 15 Oeste 0 1016 0.8 89
2019-12-05 22:00:00 11.7 9 Oeste 12 Noroeste 0.2 1015.8 1.4 91
2019-12-05 21:00:00 12.1 4 Oeste 13 Nordeste 1 1015.7 1.8 90
2019-12-05 20:00:00 13 4 Sur 11 Noroeste 0 1015.2 1.8 81
2019-12-05 19:00:00 13 5 Norte 15 Norte 0 1014.4 1.4 78
2019-12-05 18:00:00 13.1 7 Nordeste 21 Nordeste 0 1013.9 1.5 82
2019-12-05 17:00:00 13.7 6 Nordeste 13 Nordeste 0 1013.4 1.2 78
2019-12-05 16:00:00 13.7 8 Nordeste 23 Nordeste 0 1013 0.8 79
2019-12-05 15:00:00 13.4 10 Nordeste 18 Norte 0 1012.4 0 82
2019-12-05 14:00:00 13.1 4 Nordeste 21 Nordeste 0 1012.2 0.4 88
2019-12-05 13:00:00 13.1 13 Norte 28 Nordeste 0.4 1012.2 1.1 84
2019-12-05 12:00:00 13.2 14 Norte 27 Norte 0.2 1012.4 2.2 84
2019-12-05 11:00:00 13 15 Nordeste 30 Nordeste 0.8 1011.8 2.5 83
2019-12-05 10:00:00 12.5 13 Norte 28 Norte 1 1011.1 2.6 87
2019-12-05 09:00:00 12.1 13 Norte 26 Norte 0.4 1010.2 2 89
2019-12-05 08:00:00 12.1 12 Norte 25 Nordeste 0.6 1009.3 1.7 88
2019-12-05 07:00:00 11.3 8 Noroeste 16 Norte 8.4 1008.5 1.3 94
2019-12-05 06:00:00 11.3 3 Sudeste 12 Norte 8.2 1008.2 1.9 94
2019-12-05 05:00:00 11.4 11 Norte 23 Norte 6.8 1007.6 1.9 93
2019-12-05 04:00:00 11.5 4 Nordeste 19 Nordeste 15.6 1007.2 2.2 95
2019-12-05 03:00:00 11.5 4 Norte 27 Nordeste 21 1006.3 1.8 94
2019-12-05 02:00:00 11.6 14 Norte 24 Nordeste 14.4 1005.7 2 93
2019-12-05 01:00:00 12.2 14 Norte 28 Norte 0 1005 1.7 87
2019-12-05 00:00:00 12 13 Norte 29 Nordeste 0.4 1004.5 2.2 87
2019-12-04 23:00:00 11.8 17 Norte 28 Norte 3.4 1003.7 2.3 88
2019-12-04 22:00:00 11.4 15 Norte 39 Nordeste 5.2 1003.3 2.2 90
2019-12-04 21:00:00 11.4 18 Norte 34 Norte 3.4 1002.3 1.9 88
2019-12-04 20:00:00 11.3 12 Norte 25 Norte 0.2 1001.4 1 85
2019-12-04 19:00:00 11.3 9 Norte 24 Noroeste 0.2 1001.1 1 85
2019-12-04 18:00:00 10.8 7 Noroeste 22 Noroeste 2.2 1000.4 0.6 88
2019-12-04 17:00:00 11.2 9 Noroeste 23 Norte 0.8 1000.4 0.8 85
2019-12-04 16:00:00 12.4 13 Norte 46 Nordeste 1 1000.1 1 78
2019-12-04 15:00:00 13.8 15 Norte 36 Norte 0 999.8 0.6 71
2019-12-04 14:00:00 13.7 14 Norte 36 Nordeste 0 999.6 -1.7 72
2019-12-04 13:00:00 12.9 10 Noroeste 28 Norte 0 999.1 -2.3 68
2019-12-04 12:00:00 10.8 18 Norte 41 Norte 2.8 999.2 -2 80
2019-12-04 11:00:00 10.9 14 Norte 30 Nordeste 1.4 1001.3 0.6 85
2019-12-04 10:00:00 10.6 15 Norte 29 Norte 2.6 1001.4 0.9 86
2019-12-04 09:00:00 10.8 7 Norte 35 Nordeste 7.2 1001.2 0.6 89
2019-12-04 08:00:00 11.1 23 Norte 50 Nordeste 2.6 1000.7 -1 87
2019-12-04 07:00:00 11.6 29 Nordeste 55 Nordeste 4.4 1000.5 -2.4 83
2019-12-04 06:00:00 11.7 24 Norte 47 Nordeste 5.6 1000.6 -2.9 86
2019-12-04 05:00:00 11.8 25 Norte 49 Nordeste 1.2 1001.7 -3.1 83
2019-12-04 04:00:00 11.6 22 Norte 51 Norte 3.2 1002.9 -2.5 85
2019-12-04 03:00:00 11.5 22 Norte 52 Norte 4.4 1003.5 -3.2 85
2019-12-04 02:00:00 11.7 24 Norte 45 Nordeste 1.2 1004.8 -2.6 84
2019-12-04 01:00:00 11.6 22 Norte 45 Nordeste 2.8 1005.4 -2.9 85
2019-12-04 00:00:00 11.8 24 Norte 41 Nordeste 0.6 1006.7 -2 82
2019-12-03 23:00:00 11.7 21 Norte 38 Norte 0.4 1007.4 -1.5 80
2019-12-03 22:00:00 11.4 19 Norte 42 Norte 0.4 1008.3 -1.2 78
2019-12-03 21:00:00 11.1 10 Norte 22 Norte 0.6 1008.7 -0.6 77
2019-12-03 20:00:00 10.6 6 Noroeste 26 Nordeste 0.2 1008.9 -0.4 75
2019-12-03 19:00:00 11.7 11 Norte 26 Norte 0.2 1009.5 0.3 64
2019-12-03 18:00:00 11.8 15 Norte 27 Nordeste 0 1009.3 -0.3 57
2019-12-03 17:00:00 11.7 6 Norte 19 Nordeste 0 1009.3 -0.9 65
2019-12-03 16:00:00 12.5 12 Nordeste 29 Norte 0 1009.2 -2 56
2019-12-03 15:00:00 12.7 8 Nordeste 22 Nordeste 0 1009.6 -2.3 52
2019-12-03 14:00:00 12 10 Nordeste 21 Nordeste 0 1010.2 -2 53
2019-12-03 13:00:00 11.4 9 Nordeste 20 Nordeste 0 1011.2 -1 57
2019-12-03 12:00:00 11.9 5 Este 11 Este 0 1011.9 0 62
2019-12-03 11:00:00 12 4 Norte 9 Norte 0 1012.2 0.8 55
2019-12-03 10:00:00 11.4 5 Norte 8 Noroeste 0 1012.2 1.1 57
2019-12-03 09:00:00 11.7 5 Norte 12 Norte 0 1011.9 0.9 55
2019-12-03 08:00:00 11.7 5 Noroeste 9 Norte 0 1011.4 0.2 49
2019-12-03 07:00:00 11.6 2 Norte 6 Norte 0 1011.1 -0.4 54
2019-12-03 06:00:00 11.6 3 Norte 10 Norte 0 1011 -0.7 57
2019-12-03 05:00:00 11.5 4 Norte 10 Noroeste 0 1011.2 -0.7 60
2019-12-03 04:00:00 10.8 4 Noroeste 9 Oeste 0 1011.5 -0.8 68
2019-12-03 03:00:00 10.7 4 Noroeste 7 Oeste 0 1011.7 -0.9 71
2019-12-03 02:00:00 11.5 3 Noroeste 12 Nordeste 0 1011.9 -0.5 69
2019-12-03 01:00:00 11 5 Norte 9 Norte 0 1012.3 0.1 74
2019-12-03 00:00:00 11.8 4 Norte 6 Noroeste 0 1012.6 0.4 74
2019-12-02 23:00:00 13.3 3 Norte 9 Nordeste 0 1012.4 0.5 68
2019-12-02 22:00:00 13.7 5 Norte 14 Nordeste 0 1012.2 0.9 67
2019-12-02 21:00:00 13.8 8 Nordeste 15 Norte 0 1012.2 1.2 67
2019-12-02 20:00:00 13.9 8 Norte 17 Nordeste 0 1011.9 1.5 67
2019-12-02 19:00:00 14 9 Nordeste 19 Nordeste 0 1011.3 0.9 67
2019-12-02 18:00:00 14.1 8 Nordeste 20 Nordeste 0 1011 0.7 65
2019-12-02 17:00:00 14.3 9 Nordeste 26 Nordeste 0 1010.4 0 61
2019-12-02 16:00:00 14.5 11 Nordeste 23 Nordeste 0 1010.4 -0.3 58
2019-12-02 15:00:00 14.7 11 Nordeste 26 Nordeste 0 1010.3 -0.6 59
2019-12-02 14:00:00 14.6 15 Nordeste 30 Nordeste 0 1010.4 -0.5 58
2019-12-02 13:00:00 14.5 14 Nordeste 34 Norte 0 1010.7 0.4 59
2019-12-02 12:00:00 14.1 14 Nordeste 30 Nordeste 0 1010.9 1.8 62
2019-12-02 11:00:00 13.6 17 Norte 27 Nordeste 0 1010.9 2.3 64
2019-12-02 10:00:00 13.1 15 Norte 31 Nordeste 0 1010.3 2.3 65
2019-12-02 09:00:00 12.6 18 Norte 31 Norte 0 1009.1 1.6 67
2019-12-02 08:00:00 12.9 18 Norte 31 Nordeste 0 1008.6 1.2 66
2019-12-02 07:00:00 13.3 13 Nordeste 24 Norte 0 1008 0.7 55
2019-12-02 06:00:00 12.3 7 Norte 16 Nordeste 0 1007.5 0.1 56
2019-12-02 05:00:00 11.2 5 Noroeste 19 Norte 0 1007.4 -0.1 61
2019-12-02 04:00:00 12.5 9 Norte 15 Nordeste 0 1007.3 -0.2 55
2019-12-02 03:00:00 11 4 Noroeste 12 Oeste 0 1007.4 -0.1 69
2019-12-02 02:00:00 12.2 4 Noroeste 17 Norte 0 1007.5 0.2 61
2019-12-02 01:00:00 10.9 5 Norte 10 Oeste 0 1007.5 0.3 74
2019-12-02 00:00:00 11.2 4 Noroeste 8 Noroeste 0 1007.5 0.8 75
2019-12-01 23:00:00 11.8 3 Noroeste 6 Noroeste 0 1007.3 0.9 74
2019-12-01 22:00:00 12.8 3 Noroeste 7 Noroeste 0 1007.2 1.2 73
2019-12-01 21:00:00 13.6 4 Noroeste 8 Noroeste 0 1006.7 1.1 70
2019-12-01 20:00:00 13.6 4 Noroeste 12 Norte 0 1006.4 1.4 70
2019-12-01 19:00:00 13.9 5 Nordeste 15 Nordeste 0 1006 1.3 69
2019-12-01 18:00:00 14 5 Nordeste 17 Este 0 1005.6 1 71
2019-12-01 17:00:00 14.9 8 Nordeste 22 Este 0 1005 0.2 70
2019-12-01 16:00:00 16 11 Este 23 Este 0 1004.7 -0.6 69
2019-12-01 15:00:00 16.7 7 Este 19 Este 0 1004.6 -1.4 63
2019-12-01 14:00:00 17.5 7 Este 17 Este 0 1004.8 -1.9 60
2019-12-01 13:00:00 17.7 5 Sudeste 17 Este 0 1005.3 -1.5 60
2019-12-01 12:00:00 16.8 6 Sudeste 13 Sur 0 1006 -0.2 63
2019-12-01 11:00:00 14.9 2 Sudeste 9 Noroeste 0 1006.7 0.3 69
2019-12-01 10:00:00 13.9 5 Norte 9 Oeste 0 1006.8 0.5 70
2019-12-01 09:00:00 11.9 4 Oeste 9 Noroeste 0 1006.2 -0.2 74
2019-12-01 08:00:00 12.6 4 Oeste 12 Noroeste 0 1006.4 -0.1 72
2019-12-01 07:00:00 12.5 4 Noroeste 12 Noroeste 0 1006.3 -0.3 73
2019-12-01 06:00:00 11.8 7 Oeste 12 Oeste 0 1006.4 -0.4 74
2019-12-01 05:00:00 11.5 0 Calma 8 Oeste 0 1006.5 0.2 89
2019-12-01 04:00:00 11.3 4 Noroeste 7 Este 0 1006.6 -0.1 89
2019-12-01 03:00:00 12.6 2 Nordeste 12 Nordeste 0 1006.8 -0.2 93
2019-12-01 02:00:00 11.5 2 Norte 10 Noroeste 0 1006.3 -1.2 86
2019-12-01 01:00:00 11.3 6 Noroeste 12 Oeste 0 1006.7 -1.5 86
2019-12-01 00:00:00 11.3 0 Calma 12 Noroeste 0 1007 -1.1 86
2019-11-30 23:00:00 11.9 4 Sudoeste 14 Oeste 0 1007.5 -0.9 87
2019-11-30 22:00:00 13 5 Oeste 15 Oeste 0 1008.2 -0.5 85
2019-11-30 21:00:00 13.6 4 Oeste 11 Noroeste 0 1008.1 -0.7 86
2019-11-30 20:00:00 13.8 4 Oeste 8 Noroeste 0 1008.4 -0.2 88
2019-11-30 19:00:00 14.5 4 Noroeste 7 Nordeste 0 1008.7 -0.5 86
2019-11-30 18:00:00 15.1 3 Este 13 Nordeste 0 1008.8 -0.9 85
2019-11-30 17:00:00 16.1 5 Nordeste 15 Nordeste 0 1008.6 -2 82
2019-11-30 16:00:00 17.1 6 Nordeste 15 Este 0 1009.2 -2.8 76
2019-11-30 15:00:00 17.7 6 Este 15 Sudeste 0 1009.7 -3.4 70
2019-11-30 14:00:00 17.9 8 Este 15 Sudeste 0 1010.6 -3.3 69
2019-11-30 13:00:00 18.3 8 Sudeste 14 Este 0 1012 -2 70
2019-11-30 12:00:00 17.8 6 Sur 12 Sudeste 0 1013.1 -0.7 67
2019-11-30 11:00:00 16.1 4 Sudeste 8 Sur 0 1013.9 0 61
2019-11-30 10:00:00 14.4 5 Oeste 12 Noroeste 0 1014 0 66
2019-11-30 09:00:00 12.8 5 Oeste 11 Noroeste 0 1013.8 -0.2 72
2019-11-30 08:00:00 12.6 5 Oeste 13 Oeste 0 1013.9 0 71
2019-11-30 07:00:00 12.6 8 Oeste 12 Oeste 0 1014 -0.3 74
2019-11-30 06:00:00 13.2 5 Noroeste 11 Noroeste 0 1014 -0.5 72
2019-11-30 05:00:00 13.8 6 Oeste 12 Noroeste 0 1013.9 -0.6 70
2019-11-30 04:00:00 14.5 5 Noroeste 11 Oeste 0 1014.3 -0.3 67
2019-11-30 03:00:00 15.2 4 Noroeste 8 Oeste 0 1014.5 -0.2 65
2019-11-30 02:00:00 15.4 4 Noroeste 8 Noroeste 0 1014.5 0 65
2019-11-30 01:00:00 15.3 4 Noroeste 7 Noroeste 0 1014.6 0 66
2019-11-30 00:00:00 15 3 Noroeste 9 Noroeste 0 1014.7 0.4 68
2019-11-29 23:00:00 15.6 2 Norte 10 Norte 0 1014.5 0.4 67
2019-11-29 22:00:00 16.3 3 Noroeste 7 Noroeste 0 1014.6 0.8 61
2019-11-29 21:00:00 16.5 4 Noroeste 6 Noroeste 0 1014.3 1.1 61
2019-11-29 20:00:00 17.2 3 Noroeste 5 Norte 0 1014.1 1.1 58
2019-11-29 19:00:00 18.4 4 Noroeste 10 Nordeste 0 1013.8 1.6 53
2019-11-29 18:00:00 19 4 Norte 8 Nordeste 0 1013.2 1.5 53
2019-11-29 17:00:00 20.3 3 Este 10 Sur 0 1013 1.2 50
2019-11-29 16:00:00 20.9 7 Sudeste 20 Este 0 1012.2 0.2 46
2019-11-29 15:00:00 21.8 9 Sudeste 20 Este 0 1011.7 -0.7 42
2019-11-29 14:00:00 22.2 13 Este 20 Este 0 1011.8 -0.3 39
2019-11-29 13:00:00 23 7 Este 22 Este 0 1012 0.9 42
2019-11-29 12:00:00 21.9 5 Norte 12 Norte 0 1012.4 1.9 41
2019-11-29 11:00:00 20.2 6 Norte 14 Oeste 0 1012.1 2.1 47
2019-11-29 10:00:00 17.4 5 Noroeste 11 Noroeste 0 1011.1 1.8 54
2019-11-29 09:00:00 15.7 3 Norte 15 Noroeste 0 1010.5 1.8 59
2019-11-29 08:00:00 16.4 9 Noroeste 15 Oeste 0 1010 1.6 54
2019-11-29 07:00:00 16.5 6 Noroeste 13 Noroeste 0 1009.3 1.1 53
2019-11-29 06:00:00 17.4 4 Noroeste 19 Oeste 0 1008.7 0.2 52
2019-11-29 05:00:00 17.6 9 Oeste 23 Sudoeste 0 1008.4 0.1 51
2019-11-29 04:00:00 16.6 9 Sudoeste 19 Oeste 0 1008.2 -0.8 54
2019-11-29 03:00:00 17.9 11 Sudoeste 32 Oeste 0 1008.5 -0.8 50
2019-11-29 02:00:00 18.1 13 Oeste 26 Oeste 0 1008.3 -1 48
2019-11-29 01:00:00 16.7 12 Sudoeste 21 Sur 0 1009 0 50
2019-11-29 00:00:00 17.3 14 Sudoeste 27 Sudoeste 0 1009.3 1.2 49
2019-11-28 23:00:00 18.7 13 Oeste 28 Oeste 0 1009.3 1.5 41
2019-11-28 22:00:00 18.7 16 Oeste 30 Oeste 0 1009 1.7 39
2019-11-28 21:00:00 18.6 15 Oeste 31 Oeste 0 1008.1 0.8 41
2019-11-28 20:00:00 18.7 12 Sudoeste 23 Sudoeste 0 1007.8 0.4 43
2019-11-28 19:00:00 17.4 6 Sudoeste 16 Sudoeste 0 1007.3 0 51
2019-11-28 18:00:00 18 11 Sudoeste 22 Sudoeste 0 1007.3 0.4 51
2019-11-28 17:00:00 19.3 13 Sudoeste 23 Sudoeste 0 1007.4 -0.4 47
2019-11-28 16:00:00 21.4 13 Sudoeste 25 Oeste 0 1007.3 -1.2 38
2019-11-28 15:00:00 21.9 13 Sudoeste 28 Sudoeste 0 1006.9 -2.4 35
2019-11-28 14:00:00 22.3 17 Oeste 28 Oeste 0 1007.8 -1.6 34
2019-11-28 13:00:00 21.6 12 Noroeste 22 Oeste 0 1008.5 -0.5 35
2019-11-28 12:00:00 19.6 4 Sur 20 Sur 0 1009.3 0.8 41
2019-11-28 11:00:00 17.3 12 Sur 22 Sur 0 1009.4 1.7 51
2019-11-28 10:00:00 15 9 Sur 14 Sur 0 1009 1.9 57
2019-11-28 09:00:00 13.2 5 Sudoeste 14 Sudoeste 0 1008.5 2.3 59
2019-11-28 08:00:00 14.1 5 Sudoeste 18 Sudoeste 0 1007.7 1.7 55
2019-11-28 07:00:00 15.3 7 Sudoeste 32 Sudoeste 0 1007.1 1.3 50
2019-11-28 06:00:00 16.5 19 Oeste 40 Sudoeste 0 1006.2 0.4 46
2019-11-28 05:00:00 16.2 9 Oeste 28 Oeste 0 1006 0.2 46
2019-11-28 04:00:00 16.5 13 Oeste 36 Oeste 0 1005.8 -0.6 45
2019-11-28 03:00:00 15.2 11 Sudoeste 22 Sudoeste 0 1005.8 0.2 47
2019-11-28 02:00:00 16.8 15 Oeste 26 Sudoeste 0 1005.8 -0.2 43
2019-11-28 01:00:00 17.2 11 Oeste 31 Oeste 0 1006.4 0.8 42
2019-11-28 00:00:00 17.7 15 Oeste 30 Oeste 0 1005.6 0.2 40
2019-11-27 23:00:00 17.6 6 Noroeste 21 Oeste 0 1006 1.2 38
2019-11-27 22:00:00 17.8 9 Oeste 22 Noroeste 0 1005.6 1.6 38
2019-11-27 21:00:00 17.2 7 Noroeste 26 Oeste 0 1005.4 2.4 39
2019-11-27 20:00:00 17.8 13 Noroeste 28 Oeste 0 1004.8 2.3 39
2019-11-27 19:00:00 18.6 8 Noroeste 26 Oeste 0 1004 2.1 38
2019-11-27 18:00:00 20 13 Oeste 27 Oeste 0 1003 0.9 36
2019-11-27 17:00:00 21.6 14 Oeste 26 Oeste 0 1002.5 -0.1 33
2019-11-27 16:00:00 22.1 10 Oeste 22 Noroeste 0 1001.9 -1.2 31
2019-11-27 15:00:00 23 9 Oeste 23 Oeste 0 1002.1 -1.7 30
2019-11-27 14:00:00 22.5 13 Oeste 27 Oeste 0 1002.6 -1.7 32
2019-11-27 06:00:00 16.2 10 Sudoeste 24 Sudoeste 0 1001 0.4 65
2019-11-27 05:00:00 17.1 13 Sudoeste 28 Sur 0 1000.6 0 63
2019-11-27 04:00:00 17.4 13 Sudoeste 26 Sudoeste 0 1000.3 -0.8 62
2019-11-27 03:00:00 18.3 14 Sudoeste 32 Sudoeste 0 1000.6 -0.6 61
2019-11-27 02:00:00 18.2 15 Sudoeste 26 Sudoeste 0 1000.6 -0.6 61
2019-11-27 01:00:00 17.5 8 Sudoeste 21 Sudoeste 0 1001.1 -0.8 63
2019-11-27 00:00:00 16.3 4 Norte 21 Sudoeste 0 1001.2 -0.8 62
2019-11-26 23:00:00 16.2 9 Sudoeste 15 Sudoeste 0 1001.2 -1.1 62
2019-11-26 22:00:00 16.3 6 Sudoeste 19 Sudoeste 0 1001.9 -0.4 56
2019-11-26 21:00:00 14.8 5 Oeste 16 Oeste 0 1002 -0.2 63
2019-11-26 20:00:00 14.5 3 Oeste 10 Oeste 0 1002.3 -0.2 63
2019-11-26 19:00:00 15.6 0 Calma 5 Norte 0 1002.3 -0.6 56
2019-11-26 18:00:00 16.9 4 Norte 9 Nordeste 0 1002.2 -1.4 52
2019-11-26 17:00:00 18.2 4 Nordeste 12 Este 0 1002.5 -2.1 51
2019-11-26 16:00:00 19.3 6 Este 14 Este 0 1002.9 -2.4 48
2019-11-26 15:00:00 19.5 9 Sudeste 14 Este 0 1003.6 -2.4 46
2019-11-26 14:00:00 19.5 6 Sudeste 15 Sudeste 0 1004.6 -2.2 47
2019-11-26 13:00:00 19.9 8 Sur 17 Sur 0 1005.3 -1.6 50
2019-11-26 12:00:00 19.6 8 Sur 13 Sur 0 1006 -0.6 50
2019-11-26 11:00:00 17.6 5 Noroeste 15 Noroeste 0 1006.8 0.1 47
2019-11-26 10:00:00 14.4 9 Noroeste 17 Noroeste 0 1006.9 0.3 55
2019-11-26 09:00:00 12 8 Noroeste 18 Noroeste 0 1006.6 -0.1 63
2019-11-26 08:00:00 11 8 Noroeste 18 Oeste 0 1006.7 -0.1 65
2019-11-26 07:00:00 11.1 8 Oeste 16 Oeste 0 1006.6 -0.2 64
2019-11-26 06:00:00 11.7 7 Noroeste 15 Oeste 0 1006.7 -0.7 62
2019-11-26 05:00:00 12.3 11 Oeste 17 Oeste 0 1006.8 -0.8 60
2019-11-26 04:00:00 12.6 7 Noroeste 19 Oeste 0 1006.8 -1.4 58
2019-11-26 03:00:00 13 8 Oeste 18 Oeste 0 1007.4 -1.2 56
2019-11-26 02:00:00 13.2 9 Oeste 17 Oeste 0 1007.6 -0.7 56
2019-11-26 01:00:00 13.3 6 Noroeste 13 Oeste 0 1008.2 -0.1 57
2019-11-26 00:00:00 13.9 7 Noroeste 15 Noroeste 0 1008.6 0.6 55
2019-11-25 23:00:00 13.7 6 Noroeste 14 Noroeste 0 1008.3 0.6 55
2019-11-25 22:00:00 14 6 Noroeste 11 Oeste 0 1008.3 1.1 57
2019-11-25 21:00:00 15.5 4 Noroeste 7 Este 0 1008 1.6 59
2019-11-25 20:00:00 16.6 6 Este 9 Sudeste 0 1007.7 2.1 62
2019-11-25 19:00:00 17.7 3 Sudoeste 9 Este 0 1007.2 2.1 55
2019-11-25 18:00:00 19.9 4 Este 13 Noroeste 0 1006.4 2 45
2019-11-25 17:00:00 21.8 7 Norte 23 Oeste 0 1005.6 1.4 33
2019-11-25 16:00:00 22.6 12 Noroeste 32 Oeste 0 1005.1 0.5 31
2019-11-25 15:00:00 22.9 19 Oeste 30 Oeste 0 1004.4 -0.9 30
2019-11-25 14:00:00 22.7 16 Oeste 35 Noroeste 0 1004.2 -1.8 32
2019-11-25 13:00:00 23 13 Noroeste 26 Noroeste 0 1004.6 -1.3 32
2019-11-25 12:00:00 21.4 9 Noroeste 17 Noroeste 0 1005.3 -0.1 39
2019-11-25 11:00:00 18.3 7 Oeste 13 Oeste 0 1006 0.9 48
2019-11-25 10:00:00 17.3 8 Oeste 19 Oeste 0 1005.9 0.9 51
2019-11-25 09:00:00 13.4 5 Noroeste 15 Oeste 0 1005.4 0.6 61
2019-11-25 08:00:00 13.9 6 Noroeste 23 Sudoeste 0 1005.1 -0.2 57
2019-11-25 07:00:00 14.8 13 Oeste 29 Oeste 0 1005 -0.1 54
2019-11-25 06:00:00 12.5 11 Oeste 21 Oeste 0 1004.8 -0.9 56
2019-11-25 05:00:00 10.9 8 Oeste 14 Oeste 0 1005.3 -0.8 54
2019-11-25 04:00:00 10.3 6 Oeste 13 Noroeste 0 1005.1 -1 56
2019-11-25 03:00:00 10.7 5 Noroeste 19 Oeste 0 1005.7 -0.5 55
2019-11-25 02:00:00 10.5 8 Oeste 14 Oeste 0 1006.1 -0.2 60
2019-11-25 01:00:00 10.6 6 Noroeste 15 Oeste 0 1006.1 -0.2 54
2019-11-25 00:00:00 12 12 Oeste 20 Oeste 0 1006.2 0.3 49
2019-11-24 23:00:00 12.6 5 Noroeste 14 Oeste 0 1006.3 -0.2 47
2019-11-24 22:00:00 13.4 2 Nordeste 23 Oeste 0 1006.3 0.2 46
2019-11-24 21:00:00 14.5 15 Oeste 23 Oeste 0 1005.9 0.4 43
2019-11-24 20:00:00 15.1 5 Oeste 15 Oeste 0 1006.5 1.7 40
2019-11-24 19:00:00 16 10 Oeste 15 Oeste 0 1006.1 1.7 37
2019-11-24 18:00:00 16.4 6 Oeste 15 Noroeste 0 1005.5 1.5 35
2019-11-24 17:00:00 17.8 5 Noroeste 22 Oeste 0 1004.8 1.1 33
2019-11-24 16:00:00 18.7 11 Oeste 27 Oeste 0 1004.4 0.2 30
2019-11-24 15:00:00 18.6 17 Oeste 30 Noroeste 0 1004 -0.4 32
2019-11-24 14:00:00 18.6 9 Oeste 20 Sudoeste 0 1003.7 -0.8 31
2019-11-24 13:00:00 17.7 12 Sudoeste 27 Sudoeste 0 1004.2 -0.1 34
2019-11-24 12:00:00 17.4 10 Sudoeste 24 Sudoeste 0 1004.4 0.4 35
2019-11-24 11:00:00 16.8 6 Noroeste 19 Oeste 0 1004.5 1 32
2019-11-24 10:00:00 14.7 9 Oeste 32 Oeste 0 1004.3 1.5 38
2019-11-24 09:00:00 13.6 13 Noroeste 30 Noroeste 0 1004 2.2 41
2019-11-24 08:00:00 13.1 10 Oeste 27 Noroeste 0 1003.5 1.9 42
2019-11-24 07:00:00 12.3 6 Este 27 Oeste 0 1002.8 1.7 46
2019-11-24 06:00:00 13.3 9 Oeste 23 Oeste 0 1001.8 1.3 42
2019-11-24 05:00:00 13.5 12 Oeste 24 Oeste 0 1001.6 1.6 41
2019-11-24 04:00:00 13.1 10 Oeste 22 Sudoeste 0 1001.1 1.5 42
2019-11-24 03:00:00 12.9 4 Sur 19 Oeste 0 1000.5 1.3 43
2019-11-24 02:00:00 13.8 6 Noroeste 21 Sur 0 1000 1.7 39
2019-11-24 01:00:00 14 8 Sur 24 Oeste 0 999.6 1.3 39
2019-11-24 00:00:00 14.4 4 Sudoeste 33 Oeste 0 999.2 1.6 38
2019-11-23 23:00:00 15.2 17 Noroeste 35 Noroeste 0 998.3 1 36
2019-11-23 22:00:00 15 12 Oeste 36 Oeste 0 998.3 2 37
2019-11-23 21:00:00 15 13 Oeste 33 Oeste 0 997.6 2.9 37
2019-11-23 20:00:00 15.4 13 Oeste 30 Oeste 0 997.3 3.5 34
2019-11-23 19:00:00 15.8 11 Oeste 40 Oeste 0 996.3 3.6 32
2019-11-23 18:00:00 16.4 18 Oeste 43 Noroeste 0 994.7 2.7 30
2019-11-23 17:00:00 17.2 20 Oeste 45 Oeste 0 993.8 2.3 30
2019-11-23 16:00:00 16.1 12 Oeste 27 Noroeste 0 992.7 2 37
2019-11-23 15:00:00 16.3 11 Oeste 35 Oeste 0 992 1.6 38
2019-11-23 14:00:00 16.3 21 Oeste 44 Oeste 0 991.5 1.8 39
2019-11-23 13:00:00 16.5 22 Oeste 49 Oeste 0 990.7 2 40
2019-11-23 12:00:00 15.6 16 Oeste 33 Oeste 0 990.4 2.9 43
2019-11-23 11:00:00 15 16 Oeste 39 Noroeste 0 989.7 3.3 46
2019-11-23 10:00:00 15 22 Oeste 42 Oeste 0 988.7 3.2 45
2019-11-23 09:00:00 14.4 15 Oeste 32 Oeste 0 987.5 2.2 47
2019-11-23 08:00:00 13.8 11 Oeste 31 Oeste 0 986.4 1.4 53
2019-11-23 07:00:00 13.4 12 Oeste 23 Oeste 0 985.5 0.6 56
2019-11-23 06:00:00 13.2 6 Sudoeste 21 Sudoeste 0 985.3 0 57
2019-11-23 05:00:00 14.6 19 Sudoeste 40 Sudoeste 0 985 -0.5 50
2019-11-23 04:00:00 14.3 17 Sudoeste 28 Oeste 0 984.9 -0.9 56
2019-11-23 03:00:00 14 10 Oeste 16 Sudoeste 0 985.3 -0.7 61
2019-11-23 02:00:00 13.8 10 Oeste 21 Oeste 0 985.5 -0.9 66
2019-11-23 01:00:00 13.5 9 Sudoeste 23 Oeste 0 985.8 -1.5 79
2019-11-23 00:00:00 13.3 6 Norte 18 Sur 0 986 -2.6 86
2019-11-22 23:00:00 13.5 10 Sur 22 Sur 0 986.4 -3 87
2019-11-22 22:00:00 13.8 5 Sur 18 Sur 0 987.3 -2.9 87
2019-11-22 21:00:00 13.9 6 Sudoeste 10 Oeste 0 988.6 -1.9 88
2019-11-22 20:00:00 13.9 2 Sur 10 Sudoeste 0 989.4 -2.2 89
2019-11-22 19:00:00 13.9 2 Noroeste 4 Norte 0 990.2 -2.1 89
2019-11-22 18:00:00 14.2 0 Calma 4 Este 0.4 990.5 -2.6 87
2019-11-22 17:00:00 15 2 Sur 6 Sudoeste 0 991.6 -3.1 80
2019-11-22 16:00:00 15.5 4 Sur 12 Sur 0 992.3 -4 74
2019-11-22 15:00:00 16.1 7 Sur 18 Sur 0 993.1 -4.6 68
2019-11-22 14:00:00 16.5 12 Sur 24 Sur 0 994.7 -4.1 60
2019-11-22 13:00:00 16.2 14 Sur 25 Sur 0 996.3 -2.9 58
2019-11-22 12:00:00 14.6 5 Sur 10 Sur 0 997.7 -1.8 61
2019-11-22 11:00:00 13.8 4 Sudoeste 15 Oeste 0 998.8 -0.9 56
2019-11-22 10:00:00 11.5 10 Oeste 15 Oeste 0 999.2 -0.6 61
2019-11-22 09:00:00 10.1 5 Noroeste 18 Noroeste 0 999.5 -0.4 67
2019-11-22 08:00:00 9.5 11 Oeste 21 Oeste 0 999.7 -0.3 69
2019-11-22 07:00:00 9.3 10 Oeste 17 Oeste 0 999.8 -0.4 70
2019-11-22 06:00:00 9.6 7 Noroeste 15 Oeste 0 999.9 -0.7 69
2019-11-22 05:00:00 10.4 9 Noroeste 17 Oeste 0 1000 -1 66
2019-11-22 04:00:00 10.8 7 Oeste 14 Oeste 0 1000.2 -1.4 66
2019-11-22 03:00:00 11.3 6 Oeste 17 Noroeste 0 1000.6 -1.3 62
2019-11-22 02:00:00 12.4 10 Oeste 17 Oeste 0 1001 -0.9 60
2019-11-22 01:00:00 12.5 4 Noroeste 12 Oeste 0 1001.6 -0.4 68
2019-11-22 00:00:00 13.4 5 Sudoeste 10 Oeste 0 1001.9 0 64
2019-11-21 23:00:00 13.5 4 Sudoeste 14 Sudoeste 0 1001.9 0 64
2019-11-21 22:00:00 14.1 7 Sudoeste 13 Oeste 0 1002 0.1 63
2019-11-21 21:00:00 14.2 6 Sudoeste 18 Sudoeste 0 1001.9 0.4 64
2019-11-21 20:00:00 14.5 9 Sudoeste 20 Sudoeste 0 1001.9 1 62
2019-11-21 19:00:00 14.2 9 Sur 20 Sudoeste 0 1001.9 1.1 63
2019-11-21 18:00:00 14.7 11 Sur 26 Sudoeste 0 1001.5 0.8 63
2019-11-21 17:00:00 16.1 12 Sudoeste 22 Sur 0 1000.9 -0.4 51
2019-11-21 16:00:00 16.8 13 Sur 30 Sudoeste 0 1000.8 -1.3 48
2019-11-21 15:00:00 17.3 17 Sur 28 Sur 0 1000.7 -2.1 46
2019-11-21 14:00:00 17.4 14 Sur 24 Sur 0 1001.3 -2.1 47
2019-11-21 13:00:00 18 10 Sur 21 Oeste 0 1002.1 -1.3 38
2019-11-21 12:00:00 16.4 8 Sudoeste 22 Sur 0 1002.8 -0.5 41
2019-11-21 11:00:00 13.7 6 Sur 12 Sur 0 1003.4 1 53
2019-11-21 10:00:00 10.9 4 Noroeste 17 Oeste 0 1003.4 1.2 61
2019-11-21 09:00:00 8.5 9 Oeste 15 Oeste 0 1003.3 1.4 70
2019-11-21 08:00:00 7.5 7 Oeste 21 Noroeste 0 1002.4 0.6 75
2019-11-21 07:00:00 7.6 13 Oeste 21 Oeste 0 1002.2 0.4 74
2019-11-21 06:00:00 8.3 10 Oeste 20 Noroeste 0 1001.9 -0.2 72
2019-11-21 05:00:00 8 6 Noroeste 19 Sudoeste 0 1001.8 -0.4 73
2019-11-21 04:00:00 9.2 13 Sudoeste 20 Sudoeste 0 1001.8 -0.9 70
2019-11-21 03:00:00 9.2 5 Noroeste 11 Noroeste 0 1002.1 -0.9 73
2019-11-21 02:00:00 10.3 6 Oeste 11 Noroeste 0 1002.2 -1.2 70
2019-11-21 01:00:00 10.8 5 Oeste 9 Noroeste 0 1002.7 -0.6 68
2019-11-21 00:00:00 11.3 3 Noroeste 13 Oeste 0 1003 -0.4 66
2019-11-20 23:00:00 11.2 6 Oeste 16 Oeste 0 1003.4 -0.2 67
2019-11-20 22:00:00 11.1 8 Oeste 14 Oeste 0 1003.3 -0.2 69
2019-11-20 21:00:00 11.2 6 Oeste 9 Oeste 0 1003.4 0 69
2019-11-20 20:00:00 11.8 3 Noroeste 5 Noroeste 0 1003.6 0.2 66
2019-11-20 19:00:00 11.9 3 Norte 5 Nordeste 0 1003.5 -0.1 64
2019-11-20 18:00:00 12.8 4 Nordeste 8 Sudeste 0 1003.4 -0.3 60
2019-11-20 17:00:00 13.9 6 Sudeste 14 Sudeste 0 1003.4 -1 57
2019-11-20 16:00:00 14.3 7 Sudeste 17 Sur 0 1003.6 -1.7 57
2019-11-20 15:00:00 15 8 Sur 18 Sudeste 0 1003.7 -2.6 53
2019-11-20 14:00:00 15.5 9 Sur 17 Sur 0 1004.4 -2.5 55
2019-11-20 13:00:00 15.7 6 Este 12 Sur 0 1005.3 -1.8 49
2019-11-20 12:00:00 15 5 Sudoeste 9 Oeste 0 1006.3 -0.8 56
2019-11-20 11:00:00 12 7 Oeste 18 Oeste 0 1006.9 -0.2 56
2019-11-20 10:00:00 9.8 9 Oeste 22 Oeste 0 1007.1 0 59
2019-11-20 09:00:00 8.3 13 Oeste 22 Noroeste 0 1007.1 0.1 61
2019-11-20 08:00:00 7.5 11 Oeste 22 Noroeste 0 1007.1 -0.1 63
2019-11-20 07:00:00 7.4 10 Oeste 21 Noroeste 0 1007.1 -0.7 64
2019-11-20 06:00:00 7.4 13 Oeste 23 Noroeste 0 1007 -1.1 62
2019-11-20 05:00:00 7.4 11 Oeste 21 Oeste 0 1007.2 -1.3 62
2019-11-20 04:00:00 7.5 12 Oeste 22 Oeste 0 1007.8 -1.2 62
2019-11-20 03:00:00 8.1 14 Oeste 26 Oeste 0 1008.1 -1.5 59
2019-11-20 02:00:00 7.8 13 Oeste 21 Oeste 0 1008.5 -1.3 61
2019-11-20 01:00:00 8 8 Noroeste 18 Noroeste 0 1009 -0.9 60
2019-11-20 00:00:00 7.9 12 Oeste 19 Oeste 0 1009.6 -0.4 60
2019-11-19 23:00:00 8.1 10 Oeste 17 Oeste 0 1009.8 0 60
2019-11-19 22:00:00 8.4 8 Noroeste 14 Noroeste 0 1009.9 0.4 58
2019-11-19 21:00:00 8.8 8 Oeste 12 Oeste 0 1010 0.9 59
2019-11-19 20:00:00 10.1 3 Noroeste 6 Noroeste 0 1009.8 1.1 55
2019-11-19 19:00:00 11 5 Norte 7 Norte 0 1009.5 0.9 52
2019-11-19 18:00:00 12.1 2 Nordeste 10 Sudeste 0 1009.1 0.6 47
2019-11-19 17:00:00 13.7 6 Sur 16 Sur 0 1008.7 -0.3 43
2019-11-19 16:00:00 14.5 8 Sur 17 Sur 0 1008.6 -1 37
2019-11-19 15:00:00 14.8 8 Sur 18 Sudeste 0 1008.5 -2.2 37
2019-11-19 14:00:00 15.2 8 Sudeste 19 Sur 0 1009 -2.4 34
2019-11-19 13:00:00 15.5 7 Sudoeste 13 Sur 0 1009.6 -1.6 30
2019-11-19 12:00:00 14.6 6 Sur 13 Sudoeste 0 1010.7 -0.4 33
2019-11-19 11:00:00 12.4 9 Oeste 22 Oeste 0 1011.4 0.7 40
2019-11-19 10:00:00 9.8 10 Oeste 19 Oeste 0 1011.2 1 49
2019-11-19 09:00:00 7 12 Oeste 20 Oeste 0 1011.1 1.1 54
2019-11-19 08:00:00 5.4 10 Oeste 17 Oeste 0 1010.7 0.9 59
2019-11-19 07:00:00 6.1 9 Oeste 19 Oeste 0 1010.2 -0.1 55
2019-11-19 06:00:00 6.3 12 Oeste 18 Noroeste 0 1010 -0.5 54
2019-11-19 05:00:00 6.5 11 Oeste 20 Oeste 0 1009.8 -0.4 53
2019-11-19 04:00:00 6.8 8 Noroeste 16 Noroeste 0 1010.3 0.2 50
2019-11-19 03:00:00 6.9 10 Oeste 17 Oeste 0 1010.5 0.5 53
2019-11-19 02:00:00 8.3 8 Oeste 26 Oeste 0 1010.2 0.5 50
2019-11-19 01:00:00 8.4 11 Noroeste 22 Noroeste 0 1010.1 0.8 50
2019-11-19 00:00:00 9.6 8 Noroeste 18 Noroeste 0 1010 1.2 43
2019-11-18 23:00:00 9.5 9 Oeste 18 Noroeste 0 1009.7 1.3 44
2019-11-18 22:00:00 10.4 12 Oeste 19 Oeste 0 1009.3 1.5 43
2019-11-18 21:00:00 12 8 Noroeste 33 Noroeste 0 1008.8 1.9 37
2019-11-18 20:00:00 12.4 12 Norte 25 Norte 0 1008.4 2.2 36
2019-11-18 19:00:00 12.9 10 Norte 26 Norte 0 1007.8 2.2 37
2019-11-18 18:00:00 13.7 7 Norte 24 Norte 0 1006.9 1.6 36
2019-11-18 17:00:00 14.9 11 Norte 24 Norte 0 1006.2 1.1 34
2019-11-18 16:00:00 15.5 13 Norte 27 Norte 0 1005.6 0.8 31
2019-11-18 15:00:00 15.1 9 Norte 26 Noroeste 0 1005.3 0.5 31
2019-11-18 14:00:00 15 9 Norte 24 Norte 0 1005.1 0.9 33
2019-11-18 13:00:00 16.1 13 Norte 27 Nordeste 0 1004.8 1.2 32
2019-11-18 12:00:00 16.3 4 Sur 14 Sur 0 1004.8 1.6 36
2019-11-18 11:00:00 14.4 3 Noroeste 17 Noroeste 0 1004.2 1.3 42
2019-11-18 10:00:00 12 8 Noroeste 15 Oeste 0 1003.6 1.2 51
2019-11-18 09:00:00 9.1 6 Noroeste 13 Noroeste 0 1003.2 1.2 62
2019-11-18 08:00:00 8.4 5 Norte 16 Oeste 0 1002.9 1.3 65
2019-11-18 07:00:00 8.4 8 Oeste 15 Noroeste 0 1002.4 1.3 70
2019-11-18 06:00:00 9.5 6 Norte 15 Noroeste 0 1002 0.5 67
2019-11-18 05:00:00 9.7 9 Oeste 14 Oeste 0 1001.6 -0.2 74
2019-11-18 04:00:00 10.5 5 Noroeste 15 Oeste 0 1001.1 -1.3 72
2019-11-18 03:00:00 10.5 4 Oeste 8 Oeste 0 1001.5 -0.5 77
2019-11-18 02:00:00 11.9 4 Noroeste 9 Noroeste 0 1001.8 -0.6 67
2019-11-18 01:00:00 12.4 3 Noroeste 7 Norte 0 1002.4 -0.7 65
2019-11-18 00:00:00 13.1 2 Sudeste 6 Sudeste 0 1002 -0.6 62
2019-11-17 23:00:00 13.1 4 Sudoeste 10 Norte 0 1002.4 -0.2 59
2019-11-17 22:00:00 13.7 5 Noroeste 13 Oeste 0 1003.1 0.8 57
2019-11-17 21:00:00 13.4 5 Noroeste 19 Noroeste 0 1002.6 0.3 54
2019-11-17 20:00:00 15.1 13 Oeste 28 Oeste 0 1002.6 0.7 46
2019-11-17 19:00:00 16.1 12 Oeste 26 Oeste 0 1002.3 0.3 44
2019-11-17 18:00:00 17.2 9 Oeste 27 Noroeste 0 1002.3 -0.4 41
2019-11-17 17:00:00 16.5 7 Sudoeste 26 Sur 0 1001.9 -1.4 41
2019-11-17 16:00:00 17.1 12 Sur 21 Sudoeste 0 1002 -2.1 38
2019-11-17 15:00:00 17.2 5 Sudoeste 25 Oeste 0 1002.7 -2.5 34
2019-11-17 14:00:00 17.5 16 Oeste 28 Oeste 0 1003.3 -2.4 33
2019-11-17 13:00:00 16.4 14 Oeste 29 Sudoeste 0 1004.1 -2.1 34
2019-11-17 12:00:00 15.7 10 Sudoeste 28 Oeste 0 1005.2 -0.9 34
2019-11-17 11:00:00 14.3 15 Oeste 32 Noroeste 0 1005.7 -0.6 36
2019-11-17 10:00:00 12.2 13 Oeste 28 Oeste 0 1006.2 0.3 41
2019-11-17 09:00:00 10.9 9 Oeste 22 Oeste 0 1006.1 -0.1 43
2019-11-17 08:00:00 9.6 10 Oeste 21 Oeste 0 1006.3 -0.2 45
2019-11-17 07:00:00 9.1 9 Oeste 19 Oeste 0 1005.9 -0.7 48
2019-11-17 06:00:00 7.5 6 Noroeste 16 Oeste 0 1006.2 -0.5 54
2019-11-17 05:00:00 7.8 6 Noroeste 14 Noroeste 0 1006.5 -0.6 52
2019-11-17 04:00:00 8.3 6 Noroeste 14 Oeste 0 1006.6 -0.7 50
2019-11-17 03:00:00 9.8 12 Oeste 20 Oeste 0 1006.7 -0.6 45
2019-11-17 02:00:00 9.4 6 Noroeste 16 Oeste 0 1007.1 -0.5 47
2019-11-17 01:00:00 8.5 8 Oeste 13 Noroeste 0 1007.3 -0.3 50
2019-11-17 00:00:00 8.9 6 Noroeste 13 Oeste 0 1007.3 -0.2 52
2019-11-16 23:00:00 8.1 7 Oeste 11 Noroeste 0 1007.6 -0.1 59
2019-11-16 22:00:00 8.9 7 Oeste 15 Oeste 0 1007.6 0 56
2019-11-16 21:00:00 8.9 7 Oeste 12 Oeste 0 1007.5 0.5 62
2019-11-16 20:00:00 9.1 8 Oeste 12 Noroeste 0 1007.7 1.2 63
2019-11-16 19:00:00 10.7 3 Noroeste 6 Norte 0 1007.6 1.7 57
2019-11-16 18:00:00 11.6 2 Sudeste 9 Sur 0 1007 1.6 53
2019-11-16 17:00:00 13.2 6 Sur 15 Este 0 1006.5 1.1 46
2019-11-16 16:00:00 13.8 8 Sudeste 19 Sudeste 0 1005.9 0.5 43
2019-11-16 15:00:00 14.5 8 Sudeste 18 Sudeste 0 1005.4 -0.4 40
2019-11-16 14:00:00 14.9 12 Sudeste 21 Este 0 1005.4 -0.6 38
2019-11-16 13:00:00 15.4 6 Este 14 Sudeste 0 1005.4 -0.5 33
2019-11-16 12:00:00 14.9 4 Sudoeste 12 Noroeste 0 1005.8 0.4 31
2019-11-16 11:00:00 12.5 4 Noroeste 18 Oeste 0 1006 1.7 37
2019-11-16 10:00:00 9.9 9 Oeste 15 Oeste 0 1005.9 2.5 47
2019-11-16 09:00:00 7.6 2 Oeste 18 Oeste 0 1005.4 2.5 55
2019-11-16 08:00:00 7.8 12 Oeste 22 Oeste 0 1004.3 2.2 53
2019-11-16 07:00:00 7.4 11 Oeste 17 Noroeste 0 1003.4 1.7 58
2019-11-16 06:00:00 6.8 10 Oeste 17 Noroeste 0 1002.9 1.7 59
2019-11-16 05:00:00 6.3 10 Noroeste 18 Oeste 0 1002.1 1.3 61
2019-11-16 04:00:00 6.4 9 Oeste 15 Noroeste 0 1001.7 1.1 60
2019-11-16 03:00:00 6.4 8 Oeste 14 Noroeste 0 1001.2 1.1 62
2019-11-16 02:00:00 7.5 9 Oeste 15 Oeste 0 1000.8 1.3 57
2019-11-16 01:00:00 7.2 8 Oeste 15 Oeste 0 1000.6 1.4 59
2019-11-16 00:00:00 8.6 8 Oeste 14 Oeste 0 1000.1 1.5 52
2019-11-15 23:00:00 9 7 Noroeste 15 Noroeste 0 999.5 1.4 51
2019-11-15 22:00:00 9.3 5 Noroeste 11 Noroeste 0 999.2 1.4 52
2019-11-15 21:00:00 11.4 6 Noroeste 15 Oeste 0 998.6 1.7 46
2019-11-15 20:00:00 12.3 5 Noroeste 12 Oeste 0 998.1 1.8 39
2019-11-15 19:00:00 12.8 5 Noroeste 15 Oeste 0 997.8 1.9 39
2019-11-15 18:00:00 14.1 5 Oeste 8 Oeste 0 996.9 1.4 38
2019-11-15 17:00:00 14.9 4 Este 16 Nordeste 0 996.3 0.9 37
2019-11-15 16:00:00 15.4 6 Nordeste 26 Oeste 0 995.9 -- 35
2019-11-15 15:00:00 15.9 15 Oeste 27 Oeste 0 995.5 -- 33
2019-11-15 14:00:00 15.4 6 Este 30 Noroeste 0 995.4 -- 35
2019-11-15 13:00:00 -- -- -- -- -- -- -- -- --
2019-11-15 12:00:00 -- -- -- -- -- -- -- -- --
2019-11-15 11:00:00 -- -- -- -- -- -- -- -- --
2019-11-15 10:00:00 11.3 15 Oeste 26 Oeste 0 997 1.5 42
2019-11-15 09:00:00 10.1 10 Oeste 23 Oeste 0 996.8 2 46
2019-11-15 08:00:00 9.7 6 Noroeste 20 Oeste 0 996 1.3 50
2019-11-15 07:00:00 9.7 10 Oeste 18 Sudoeste 0 995.5 0.9 53
2019-11-15 06:00:00 9.8 6 Noroeste 19 Noroeste 0 994.8 0.6 50
2019-11-15 05:00:00 10.1 8 Oeste 25 Oeste 0 994.7 1.1 49
2019-11-15 04:00:00 10.3 10 Oeste 24 Oeste 0 994.6 1.1 50
2019-11-15 03:00:00 10.8 12 Oeste 25 Oeste 0 994.2 0.8 49
2019-11-15 02:00:00 10.3 13 Oeste 29 Oeste 0 993.6 -0.1 58
2019-11-15 01:00:00 10.1 12 Oeste 25 Oeste 0 993.5 -0.3 60
2019-11-15 00:00:00 10.2 5 Noroeste 30 Oeste 0 993.4 -0.6 57
2019-11-14 23:00:00 10.8 10 Oeste 21 Sudoeste 0 993.7 -0.2 51
2019-11-14 22:00:00 11.3 11 Sudoeste 20 Sudoeste 0 993.8 0.3 49
2019-11-14 21:00:00 11.2 12 Sudoeste 19 Oeste 0 994 0.7 44
2019-11-14 20:00:00 11.4 4 Sudoeste 19 Oeste 0 993.9 1 49
2019-11-14 19:00:00 12.7 8 Sudoeste 15 Sudoeste 0 993.5 0.5 43
2019-11-14 18:00:00 13.8 12 Sudoeste 21 Sudoeste 0 993.3 0.6 36
2019-11-14 17:00:00 14.4 7 Sudoeste 27 Sudoeste 0 992.9 0.6 37
2019-11-14 16:00:00 14.5 16 Oeste 42 Oeste 0 993 -0.5 35
2019-11-14 15:00:00 14.7 17 Oeste 34 Oeste 0 992.7 -1.8 34
2019-11-14 14:00:00 14.7 13 Oeste 35 Oeste 0 992.3 -1.5 38
2019-11-14 13:00:00 14.9 22 Oeste 42 Noroeste 0 993.5 -0.6 38
2019-11-14 12:00:00 14.5 21 Oeste 46 Oeste 0 994.5 0.3 46
2019-11-14 11:00:00 16.3 15 Oeste 26 Sudoeste 0 993.8 -0.8 48
2019-11-14 10:00:00 15 14 Sur 29 Sur 0 994.1 -1 57
2019-11-14 09:00:00 14.2 14 Sudoeste 25 Sudoeste 0 994.2 -1.7 59
2019-11-14 08:00:00 9.9 5 Norte 14 Noroeste 0 994.6 -2.4 77
2019-11-14 07:00:00 11.1 6 Noroeste 18 Sudoeste 0 995.1 -2.9 72
2019-11-14 06:00:00 12.2 12 Sudoeste 20 Sudoeste 0 995.9 -3.4 79
2019-11-14 05:00:00 10.3 6 Oeste 15 Oeste 0 997 -3.7 69
2019-11-14 04:00:00 10.5 6 Oeste 12 Oeste 0 998 -3.9 66
2019-11-14 03:00:00 11 6 Oeste 16 Oeste 0 999.3 -3.9 63
2019-11-14 02:00:00 10.9 9 Oeste 15 Noroeste 0 1000.7 -3.6 68
2019-11-14 01:00:00 12 3 Sur 9 Sudoeste 0 1001.9 -2.4 79
2019-11-14 00:00:00 12.5 4 Sudoeste 10 Sudoeste 0 1003.2 -1.3 71
2019-11-13 23:00:00 12.9 7 Sudoeste 13 Sur 0 1004.3 -0.2 69
2019-11-13 22:00:00 13.1 8 Sudoeste 17 Sudoeste 0 1004.3 -0.2 69
2019-11-13 21:00:00 14 8 Oeste 13 Oeste 0 1004.5 0.5 56
2019-11-13 20:00:00 15.1 4 Noroeste 14 Noroeste 0 1004.5 0.9 55
2019-11-13 19:00:00 15.9 6 Oeste 12 Sudoeste 0 1004.5 1.9 49
2019-11-13 18:00:00 16.3 5 Sur 11 Sur 0 1004 2.2 60
2019-11-13 17:00:00 18.2 6 Sudoeste 19 Noroeste 0 1003.6 2.2 52
2019-11-13 16:00:00 18.9 5 Sudoeste 17 Oeste 0 1002.6 1.3 43
2019-11-13 15:00:00 18.9 10 Sudoeste 21 Sur 0 1001.8 0.3 51
2019-11-13 14:00:00 18.4 8 Sur 18 Sudoeste 0 1001.4 0.5 54
2019-11-13 13:00:00 17.9 5 Sur 11 Nordeste 0 1001.3 1.6 59
2019-11-13 12:00:00 16.3 3 Este 7 Este 0 1001.5 2.6 64
2019-11-13 11:00:00 14.1 4 Norte 12 Nordeste 0 1000.9 2.5 73
2019-11-13 10:00:00 12.2 7 Norte 11 Norte 0 999.7 1.4 84
2019-11-13 09:00:00 11.4 4 Noroeste 8 Norte 0 998.9 0.3 89
2019-11-13 08:00:00 10.9 3 Noroeste 9 Norte 0.2 998.4 -0.4 91
2019-11-13 07:00:00 10.9 3 Noroeste 5 Norte 1.4 998.3 -0.7 86
2019-11-13 06:00:00 11.3 3 Noroeste 6 Noroeste 0.8 998.6 -0.9 79
2019-11-13 05:00:00 12.5 5 Norte 8 Oeste 0.2 998.8 -1.7 67
2019-11-13 04:00:00 12.5 6 Sudoeste 10 Sur 0 999 -2.6 60
2019-11-13 03:00:00 12.9 4 Noroeste 15 Oeste 0 999.5 -3 61
2019-11-13 02:00:00 12.5 3 Sudeste 8 Sur 0 1000.5 -2.3 63
2019-11-13 01:00:00 13.1 4 Sudoeste 9 Sudoeste 0.4 1001.6 -1.7 64
2019-11-13 00:00:00 14.3 8 Sudoeste 22 Oeste 0.2 1002.5 -0.9 57
2019-11-12 23:00:00 15.1 6 Oeste 18 Oeste 0 1002.8 -0.9 41
2019-11-12 22:00:00 15.3 9 Oeste 26 Noroeste 0 1003.3 -0.2 39
2019-11-12 21:00:00 15.8 10 Oeste 22 Oeste 0 1003.4 0.2 37
2019-11-12 20:00:00 16.1 10 Oeste 17 Oeste 0 1003.7 0.6 36
2019-11-12 19:00:00 16.6 12 Oeste 25 Noroeste 0 1003.5 0.8 33
2019-11-12 18:00:00 17.2 6 Noroeste 15 Noroeste 0 1003.2 0.1 33
2019-11-12 17:00:00 18.3 6 Sudeste 19 Este 0 1003.1 -0.5 37
2019-11-12 16:00:00 19 8 Este 25 Sudeste 0 1002.7 -1.8 32
2019-11-12 15:00:00 19.2 10 Nordeste 30 Norte 0 1003.1 -2.3 29
2019-11-12 14:00:00 18.9 18 Norte 38 Norte 0 1003.6 -2.1 28
2019-11-12 13:00:00 19.3 13 Norte 30 Noroeste 0 1004.5 -1.7 28
2019-11-12 12:00:00 18.6 15 Norte 36 Norte 0 1005.4 -1 29
2019-11-12 11:00:00 16.7 9 Norte 22 Nordeste 0 1005.7 -0.3 33
2019-11-12 10:00:00 13.7 7 Sur 12 Sur 0 1006.2 0.4 41
2019-11-12 09:00:00 13.4 5 Noroeste 21 Sudoeste 0 1006.4 0.6 38
2019-11-12 08:00:00 12.5 11 Sudoeste 21 Sudoeste 0 1006 0.4 40
2019-11-12 07:00:00 12.4 4 Sur 18 Noroeste 0 1005.8 0.5 38
2019-11-12 06:00:00 13.5 13 Noroeste 39 Noroeste 0 1005.8 0.4 33
2019-11-12 05:00:00 12.9 10 Oeste 21 Noroeste 0 1005.6 -0.6 35
2019-11-12 04:00:00 11.9 5 Sudoeste 14 Sudoeste 0 1005.3 -0.9 40
2019-11-12 03:00:00 12.7 7 Sudoeste 18 Sudoeste 0 1005.4 -0.7 38
2019-11-12 02:00:00 12.6 8 Sudoeste 20 Noroeste 0 1006.2 -0.4 39
2019-11-12 01:00:00 12.6 4 Sudoeste 26 Norte 0 1006.2 -0.5 39
2019-11-12 00:00:00 13.5 14 Noroeste 25 Norte 0 1006.1 -0.4 36
2019-11-11 23:00:00 13.5 8 Norte 17 Noroeste 0 1006.6 0.3 35
2019-11-11 22:00:00 13.1 3 Nordeste 7 Sudoeste 0 1006.7 0.8 52
2019-11-11 21:00:00 14.5 3 Norte 9 Sudoeste 0 1006.5 0.9 49
2019-11-11 20:00:00 15 5 Oeste 12 Oeste 0 1006.3 1.2 51
2019-11-11 19:00:00 15.5 3 Este 6 Sur 0 1005.9 0.8 49
2019-11-11 18:00:00 16 2 Sudeste 8 Sur 0 1005.6 1 47
2019-11-11 17:00:00 16.5 5 Sur 15 Sudeste 0 1005.1 0.6 46
2019-11-11 16:00:00 17.2 6 Sur 16 Sur 0 1005.1 -0.2 44
2019-11-11 15:00:00 17.8 10 Sudeste 18 Sur 0 1004.6 -1.8 36
2019-11-11 14:00:00 18.3 10 Sudeste 21 Este 0 1004.5 -2.3 38
2019-11-11 13:00:00 18.5 6 Este 15 Este 0 1005.3 -1.9 32
2019-11-11 12:00:00 17.9 5 Norte 21 Oeste 0 1006.4 -0.5 32
2019-11-11 11:00:00 15.7 10 Oeste 26 Oeste 0 1006.8 -0.1 37
2019-11-11 10:00:00 13.9 11 Noroeste 25 Oeste 0 1007.2 0.5 41
2019-11-11 09:00:00 12.6 14 Oeste 29 Oeste 0 1006.9 -0.8 42
2019-11-11 08:00:00 11.8 16 Oeste 30 Oeste 0 1006.9 -0.6 44
2019-11-11 07:00:00 11.2 15 Oeste 27 Oeste 0 1006.7 -0.9 45
2019-11-11 06:00:00 10.9 13 Oeste 24 Noroeste 0 1007.7 0 45
2019-11-11 05:00:00 10.7 10 Oeste 24 Oeste 0 1007.5 0.2 44
2019-11-11 04:00:00 10.6 11 Oeste 32 Oeste 0 1007.6 -0.1 43
2019-11-11 03:00:00 11.3 13 Oeste 32 Noroeste 0 1007.7 0.5 38
2019-11-11 02:00:00 12.6 18 Noroeste 44 Noroeste 0 1007.3 0.8 31
2019-11-11 01:00:00 12.7 18 Noroeste 38 Noroeste 0 1007.7 1.5 31
2019-11-11 00:00:00 11.8 8 Noroeste 17 Noroeste 0 1007.2 0.8 34
2019-11-10 23:00:00 12.6 9 Oeste 25 Noroeste 0 1006.5 0 35
2019-11-10 22:00:00 13.1 11 Noroeste 28 Noroeste 0 1006.2 0.2 33
2019-11-10 21:00:00 13 9 Noroeste 20 Oeste 0 1006.4 0.9 39
2019-11-10 20:00:00 13.3 5 Noroeste 20 Norte 0 1006.5 1.6 35
2019-11-10 19:00:00 13.8 6 Noroeste 23 Norte 0 1006 1.7 33
2019-11-10 18:00:00 15 17 Norte 40 Noroeste 0 1005.5 1.4 29
2019-11-10 17:00:00 16.5 14 Norte 31 Norte 0 1004.9 0.5 27
2019-11-10 16:00:00 16.5 10 Norte 36 Norte 0 1004.3 -0.8 29
2019-11-10 15:00:00 16.6 21 Norte 41 Noroeste 0 1004.1 -2.1 30
2019-11-10 14:00:00 17 17 Norte 35 Norte 0 1004.4 -1.8 26
2019-11-10 13:00:00 16.1 14 Norte 28 Sudoeste 0 1005.1 -1.1 28
2019-11-10 12:00:00 15.7 7 Sudoeste 24 Norte 0 1006.2 0.9 34
2019-11-10 11:00:00 14.5 12 Norte 29 Nordeste 0 1006.2 1.1 31
2019-11-10 10:00:00 13.5 7 Oeste 35 Noroeste 0 1006.2 1 35
2019-11-10 09:00:00 13.2 18 Noroeste 52 Norte 0 1005.3 0 36
2019-11-10 08:00:00 11.8 10 Oeste 23 Oeste 0 1005.1 -0.2 39
2019-11-10 07:00:00 11.9 9 Oeste 23 Oeste 0 1005.2 -0.1 40
2019-11-10 06:00:00 11.6 5 Oeste 17 Oeste 0 1005.3 -0.7 46
2019-11-10 05:00:00 12.3 9 Oeste 18 Oeste 0 1005.3 0.1 47
2019-11-10 04:00:00 13 8 Norte 32 Noroeste 0 1005.3 0.5 44
2019-11-10 03:00:00 13.3 17 Noroeste 57 Noroeste 0 1006 0.3 44
2019-11-10 02:00:00 14.9 8 Norte 24 Noroeste 0 1005.2 -1.1 47
2019-11-10 01:00:00 15.6 10 Oeste 23 Sudoeste 0 1004.8 -1.9 45
2019-11-10 00:00:00 16.1 12 Oeste 28 Sudoeste 0 1005.7 -0.9 43
2019-11-09 23:00:00 16.5 10 Oeste 23 Oeste 0 1006.3 -0.9 42
2019-11-09 22:00:00 16.8 15 Oeste 27 Oeste 0 1006.7 -1.1 41
2019-11-09 21:00:00 17 15 Oeste 30 Oeste 0 1006.6 -1.1 40
2019-11-09 20:00:00 15.4 10 Oeste 18 Oeste 0 1007.2 -0.5 43
2019-11-09 19:00:00 15.6 4 Noroeste 7 Nordeste 0 1007.8 -0.4 43
2019-11-09 18:00:00 16.8 3 Norte 8 Sudoeste 0 1007.7 -1.2 43
2019-11-09 17:00:00 17 5 Sur 14 Sur 0 1007.7 -1.9 41
2019-11-09 16:00:00 17.8 10 Sur 18 Sur 0 1008.2 -2 38
2019-11-09 15:00:00 18.7 11 Oeste 23 Oeste 0 1008.9 -1.8 31
2019-11-09 14:00:00 17.9 15 Oeste 30 Oeste 0 1009.6 -1.7 32
2019-11-09 13:00:00 17.8 12 Oeste 36 Noroeste 0 1010.2 -1.1 33
2019-11-09 12:00:00 19.1 17 Oeste 37 Oeste 0 1010.7 -0.9 30
2019-11-09 11:00:00 16.5 18 Oeste 44 Oeste 0 1011.3 0.4 35
2019-11-09 10:00:00 14.6 28 Oeste 42 Oeste 0 1011.3 0.7 39
2019-11-09 09:00:00 13.8 15 Oeste 31 Oeste 0 1011.6 1.5 40
2019-11-09 08:00:00 13 6 Oeste 23 Oeste 0 1010.9 1 40
2019-11-09 07:00:00 13.6 10 Oeste 35 Oeste 0 1010.6 0.8 37
2019-11-09 06:00:00 13.3 19 Oeste 37 Noroeste 0 1010.1 0.3 38
2019-11-09 05:00:00 13.4 15 Oeste 35 Oeste 0 1009.9 0.6 38
2019-11-09 04:00:00 13.6 21 Oeste 32 Oeste 0 1009.8 0.4 36
2019-11-09 03:00:00 13.9 10 Oeste 26 Noroeste 0 1009.8 0.8 37
2019-11-09 02:00:00 13.7 10 Sudoeste 25 Noroeste 0 1009.3 0.8 37
2019-11-09 01:00:00 15.1 12 Oeste 30 Oeste 0 1009.4 1.1 33
2019-11-09 00:00:00 15.3 12 Oeste 38 Noroeste 0 1009 1 33
2019-11-08 23:00:00 15.5 13 Oeste 34 Oeste 0 1008.5 0.3 31
2019-11-08 22:00:00 15.4 10 Oeste 28 Oeste 0 1008.3 1.3 32
2019-11-08 21:00:00 15.2 9 Oeste 31 Noroeste 0 1008 1.4 33
2019-11-08 20:00:00 15.6 14 Noroeste 31 Oeste 0 1008.2 2.9 32
2019-11-08 19:00:00 15.9 18 Oeste 33 Oeste 0 1007 2.4 30
2019-11-08 18:00:00 16.5 17 Noroeste 48 Oeste 0 1006.6 2.3 28
2019-11-08 17:00:00 18.2 21 Oeste 42 Noroeste 0 1005.3 0.9 26
2019-11-08 16:00:00 18.5 17 Oeste 37 Noroeste 0 1004.6 -0.4 26
2019-11-08 15:00:00 18.5 14 Noroeste 36 Oeste 0 1004.3 -1.3 26
2019-11-08 14:00:00 17.6 19 Oeste 40 Noroeste 0 1004.4 -1.5 28
2019-11-08 13:00:00 17.1 17 Oeste 37 Oeste 0 1005 -0.7 31
2019-11-08 12:00:00 16 14 Oeste 33 Oeste 0 1005.6 0.3 33
2019-11-08 11:00:00 13.4 16 Oeste 32 Oeste 0 1005.9 1.4 38
2019-11-08 10:00:00 13.6 15 Oeste 30 Oeste 0 1005.7 1.7 36
2019-11-08 09:00:00 12.4 9 Oeste 30 Noroeste 0 1005.3 1.8 36
2019-11-08 08:00:00 11.4 11 Oeste 30 Noroeste 0 1004.5 1.7 38
2019-11-08 07:00:00 11.5 18 Oeste 33 Oeste 0 1004 1.4 35
2019-11-08 06:00:00 11.9 13 Noroeste 29 Oeste 0 1003.5 0.7 33
2019-11-08 05:00:00 12.5 16 Oeste 33 Oeste 0 1002.8 0.2 34
2019-11-08 04:00:00 12.6 11 Oeste 24 Oeste 0 1002.6 -0.1 38
2019-11-08 03:00:00 12.7 9 Sudoeste 26 Oeste 0 1002.8 0 42
2019-11-08 02:00:00 13.6 17 Oeste 31 Oeste 0 1002.6 -0.2 39
2019-11-08 01:00:00 13.8 15 Oeste 28 Oeste 0 1002.7 0.3 39
2019-11-08 00:00:00 14.1 12 Oeste 35 Oeste 0 1002.8 0.3 38
2019-11-07 23:00:00 15 18 Oeste 31 Noroeste 0 1002.8 0.5 32
2019-11-07 22:00:00 15.9 7 Noroeste 22 Oeste 0 1002.4 0.7 28
2019-11-07 21:00:00 16.4 10 Oeste 21 Oeste 0 1002.5 1.5 32
2019-11-07 20:00:00 16.4 10 Oeste 21 Sudoeste 0 1002.3 1.6 45
2019-11-07 19:00:00 17.1 5 Norte 15 Este 0 1001.7 1 52
2019-11-07 18:00:00 18 7 Este 17 Nordeste 0 1001 1 53
2019-11-07 17:00:00 18.7 8 Este 26 Nordeste 0 1000.7 0.5 54
2019-11-07 16:00:00 20.8 13 Norte 24 Oeste 0 1000.7 -0.2 47
2019-11-07 15:00:00 22.7 15 Oeste 36 Oeste 0 1000 -1.5 31
2019-11-07 14:00:00 22.5 18 Oeste 32 Noroeste 0 1000.2 -1.9 33
2019-11-07 13:00:00 23 17 Sur 32 Oeste 0 1000.9 -1.3 39
2019-11-07 12:00:00 22.2 12 Sudoeste 44 Sudoeste 0 1001.5 -1.3 37
2019-11-07 11:00:00 19.1 14 Sudoeste 21 Sudoeste 0 1002.1 -0.5 44
2019-11-07 10:00:00 15 10 Sur 15 Sur 0 1002.2 -0.2 55
2019-11-07 09:00:00 13.3 8 Oeste 16 Oeste 0 1002.8 0.1 54
2019-11-07 08:00:00 10.3 10 Oeste 17 Oeste 0 1002.6 -0.7 62
2019-11-07 07:00:00 11 10 Oeste 15 Oeste 0 1002.4 -1.3 59
2019-11-07 06:00:00 11.9 9 Oeste 15 Oeste 0 1002.7 -1.5 55
2019-11-07 05:00:00 11.1 8 Oeste 18 Oeste 0 1003.3 -1.8 57
2019-11-07 04:00:00 10.6 12 Oeste 19 Oeste 0 1003.7 -2.1 58
2019-11-07 03:00:00 11.8 9 Oeste 15 Oeste 0 1004.2 -1.7 54
2019-11-07 02:00:00 12.5 5 Noroeste 21 Oeste 0 1005.1 -1.3 51
2019-11-07 01:00:00 12.6 5 Oeste 17 Oeste 0 1005.8 -1 51
2019-11-07 00:00:00 13.6 8 Oeste 17 Noroeste 0 1005.9 -0.7 47
2019-11-06 23:00:00 13.6 9 Oeste 15 Oeste 0 1006.4 -0.2 47
2019-11-06 22:00:00 13.1 5 Noroeste 12 Noroeste 0 1006.8 0.7 49
2019-11-06 21:00:00 14.2 5 Noroeste 10 Noroeste 0 1006.6 1 49
2019-11-06 20:00:00 15.8 5 Noroeste 11 Oeste 0 1006.6 1.2 47
2019-11-06 19:00:00 17.3 4 Norte 10 Nordeste 0 1006.1 0.7 46
2019-11-06 18:00:00 18.8 7 Sudeste 21 Oeste 0 1005.6 0.3 44
2019-11-06 17:00:00 20.4 10 Sudoeste 22 Sudoeste 0 1005.4 -0.3 31
2019-11-06 16:00:00 21 10 Sudeste 20 Sur 0 1005.4 -0.6 32
2019-11-06 15:00:00 21 5 Sur 17 Oeste 0 1005.3 -1.3 31
2019-11-06 14:00:00 21.2 9 Sudoeste 25 Oeste 0 1005.7 -1 29
2019-11-06 13:00:00 21.2 7 Sudoeste -- -- -- 1006 -1 29
2019-11-06 12:00:00 20.6 9 Norte 22 Oeste 0 1006.6 -0.3 27
2019-11-06 11:00:00 18.8 12 Oeste 31 Sudoeste 0 1006.7 0.5 35
2019-11-06 10:00:00 16.7 11 Sudoeste 27 Oeste 0 1007 1.4 40
2019-11-06 09:00:00 15.1 13 Oeste 22 Oeste 0 1006.9 1.7 43
2019-11-06 08:00:00 13.6 8 Sudoeste 13 Oeste 0 1006.2 1.3 49
2019-11-06 07:00:00 14.5 5 Oeste 17 Oeste 0 1005.6 0.7 45
2019-11-06 06:00:00 14 6 Sudoeste 15 Oeste 0 1005.2 0.1 47
2019-11-06 05:00:00 14.6 9 Oeste 19 Oeste 0 1004.9 -0.2 47
2019-11-06 04:00:00 14.4 9 Oeste 19 Oeste 0 1004.9 -0.3 48
2019-11-06 03:00:00 12.6 8 Sudoeste 12 Sudoeste 0 1005.1 0.1 54
2019-11-06 02:00:00 12.9 4 Sur 9 Norte 0 1005.1 0 54
2019-11-06 01:00:00 14.3 2 Nordeste 15 Oeste 0 1005.2 0.5 49
2019-11-06 00:00:00 14.9 5 Sudoeste 23 Noroeste 0 1005 0.9 48